Las Cruces, NM

5:27 AM MST on February 09, 2016 (GMT -0700)
APRSWXNET | | Change Station
CLOSE
Current Station
Personal Weather Station
Location: Dona Ana, NM
Elevation: 5654 ft
Nearby Weather Stations

Elev 5654 ft 32.46 °N, 106.92 °W | Updated 8 hours ago

Clear
Clear
44 °F
Feels Like 44 °F
N
3
Wind Variable Wind from SSW
Gusts mph

Today
High -- | Low -- °F
--% Chance of Precip.
Yesterday
High -- | Low -- °F
Precip. -- in
Pressure 30.37 in
Visibility 10.0 miles
Clouds Clear
Dew Point 19 °F
Humidity 37%
Rainfall in
Snow Depth Not available.
6:56 AM 5:47 PM
New Moon, 1% visible
METAR KLRU 091215Z AUTO 01003KT 10SM CLR 00/M08 A3037 RMK AO2 T00001080
Pressure 30.37 in
Visibility 10.0 miles
Clouds Clear
Dew Point 19 °F
Humidity 37%
Rainfall in
Snow Depth Not available.
6:56 AM 5:47 PM
New Moon, 1% visible
METAR KLRU 091215Z AUTO 01003KT 10SM CLR 00/M08 A3037 RMK AO2 T00001080

10-Day Weather Forecast

Almanac

Astronomy

Feb. 09, 2016 Rise Set
Actual Time
Civil Twilight
Nautical Twilight
Astronomical Twilight
Moon
Length of Visible Light
Length of Day
Tomorrow will be .
, % of the Moon is Illuminated

Today's Extremes

State Highs State Lows

Community

WunderPhotos

Upload Photos

1,891,588 photos uploaded!

WunderBlog® & News

Nearby

Air Quality

  Air Quality AQ Index Pollutant
Not available.

Snow Depth

Station Depth Elevation

Earthquake Activity

City Distance Mag. Time & Date
Minimum magnitude displayed is 2.5.

Coastal Water Temperatures

Place Temperature

Stations

Nearby Weather Stations

Station Location Temp. Windchill Dew Point Humidity Wind Precip. Elev Updated Type
                   

Watches & Warnings

There are currently no watches in effect.